sensor_id;sensor_type;location;lat;lon;timestamp;P1;durP1;ratioP1;P2;durP2;ratioP2
44842;SDS011;31884;52.538;13.820;2022-08-01T00:00:25;4.65;;;3.38;;
44842;SDS011;31884;52.538;13.820;2022-08-01T00:02:51;3.72;;;2.80;;
44842;SDS011;31884;52.538;13.820;2022-08-01T00:05:16;3.05;;;2.70;;
44842;SDS011;31884;52.538;13.820;2022-08-01T00:07:43;4.40;;;3.03;;
44842;SDS011;31884;52.538;13.820;2022-08-01T00:10:10;3.45;;;2.60;;
44842;SDS011;31884;52.538;13.820;2022-08-01T00:12:37;3.08;;;2.22;;
44842;SDS011;31884;52.538;13.820;2022-08-01T00:15:04;2.80;;;2.60;;
44842;SDS011;31884;52.538;13.820;2022-08-01T00:17:30;2.83;;;2.47;;
44842;SDS011;31884;52.538;13.820;2022-08-01T00:19:56;5.18;;;2.70;;
44842;SDS011;31884;52.538;13.820;2022-08-01T00:22:21;3.25;;;2.55;;
44842;SDS011;31884;52.538;13.820;2022-08-01T00:24:47;2.70;;;2.50;;
44842;SDS011;31884;52.538;13.820;2022-08-01T00:27:12;2.40;;;2.20;;
44842;SDS011;31884;52.538;13.820;2022-08-01T00:29:37;2.67;;;1.90;;
44842;SDS011;31884;52.538;13.820;2022-08-01T00:32:03;2.42;;;2.17;;
44842;SDS011;31884;52.538;13.820;2022-08-01T00:34:29;2.35;;;1.80;;
44842;SDS011;31884;52.538;13.820;2022-08-01T00:36:54;2.42;;;2.05;;
44842;SDS011;31884;52.538;13.820;2022-08-01T00:39:20;2.58;;;2.20;;
44842;SDS011;31884;52.538;13.820;2022-08-01T00:41:45;3.30;;;2.38;;
44842;SDS011;31884;52.538;13.820;2022-08-01T00:44:10;2.80;;;2.08;;
44842;SDS011;31884;52.538;13.820;2022-08-01T00:46:36;2.67;;;2.22;;
44842;SDS011;31884;52.538;13.820;2022-08-01T00:49:02;2.33;;;2.10;;
44842;SDS011;31884;52.538;13.820;2022-08-01T00:51:27;3.65;;;2.78;;
44842;SDS011;31884;52.538;13.820;2022-08-01T00:53:54;2.85;;;2.58;;
44842;SDS011;31884;52.538;13.820;2022-08-01T00:56:20;3.50;;;2.35;;
44842;SDS011;31884;52.538;13.820;2022-08-01T00:58:48;2.55;;;2.35;;
44842;SDS011;31884;52.538;13.820;2022-08-01T01:01:14;3.15;;;2.58;;
44842;SDS011;31884;52.538;13.820;2022-08-01T01:03:39;2.95;;;2.60;;
44842;SDS011;31884;52.538;13.820;2022-08-01T01:06:18;3.50;;;2.63;;
44842;SDS011;31884;52.538;13.820;2022-08-01T01:09:04;2.95;;;2.47;;
44842;SDS011;31884;52.538;13.820;2022-08-01T01:11:44;3.00;;;2.50;;
44842;SDS011;31884;52.538;13.820;2022-08-01T01:14:22;3.00;;;2.70;;
44842;SDS011;31884;52.538;13.820;2022-08-01T01:16:58;3.97;;;3.20;;
44842;SDS011;31884;52.538;13.820;2022-08-01T01:19:27;5.10;;;2.90;;
44842;SDS011;31884;52.538;13.820;2022-08-01T01:22:13;3.67;;;2.85;;
44842;SDS011;31884;52.538;13.820;2022-08-01T01:24:51;7.22;;;3.83;;
44842;SDS011;31884;52.538;13.820;2022-08-01T01:30:37;6.28;;;3.65;;
44842;SDS011;31884;52.538;13.820;2022-08-01T01:33:06;5.88;;;3.20;;
44842;SDS011;31884;52.538;13.820;2022-08-01T01:35:35;4.45;;;2.72;;
44842;SDS011;31884;52.538;13.820;2022-08-01T01:38:20;3.33;;;2.90;;
44842;SDS011;31884;52.538;13.820;2022-08-01T01:40:48;3.97;;;2.83;;
44842;SDS011;31884;52.538;13.820;2022-08-01T01:43:16;5.43;;;3.13;;
44842;SDS011;31884;52.538;13.820;2022-08-01T01:45:44;3.38;;;2.63;;
44842;SDS011;31884;52.538;13.820;2022-08-01T01:48:16;3.05;;;2.53;;
44842;SDS011;31884;52.538;13.820;2022-08-01T01:50:44;2.80;;;2.60;;
44842;SDS011;31884;52.538;13.820;2022-08-01T01:53:12;5.75;;;2.60;;
44842;SDS011;31884;52.538;13.820;2022-08-01T01:55:40;3.00;;;2.70;;
44842;SDS011;31884;52.538;13.820;2022-08-01T01:58:08;3.90;;;2.83;;
44842;SDS011;31884;52.538;13.820;2022-08-01T02:00:36;3.30;;;3.00;;
44842;SDS011;31884;52.538;13.820;2022-08-01T02:03:04;2.17;;;2.03;;
44842;SDS011;31884;52.538;13.820;2022-08-01T02:05:31;2.40;;;2.20;;
44842;SDS011;31884;52.538;13.820;2022-08-01T02:07:59;4.10;;;2.38;;
44842;SDS011;31884;52.538;13.820;2022-08-01T02:10:27;3.55;;;2.25;;
44842;SDS011;31884;52.538;13.820;2022-08-01T02:12:54;2.70;;;2.50;;
44842;SDS011;31884;52.538;13.820;2022-08-01T02:15:22;2.42;;;2.22;;
44842;SDS011;31884;52.538;13.820;2022-08-01T02:17:48;3.10;;;2.80;;
44842;SDS011;31884;52.538;13.820;2022-08-01T02:20:15;2.90;;;2.40;;
44842;SDS011;31884;52.538;13.820;2022-08-01T02:22:48;3.38;;;2.75;;
44842;SDS011;31884;52.538;13.820;2022-08-01T02:25:33;2.75;;;2.55;;
44842;SDS011;31884;52.538;13.820;2022-08-01T02:28:04;4.10;;;2.45;;
44842;SDS011;31884;52.538;13.820;2022-08-01T02:30:33;3.80;;;2.70;;
44842;SDS011;31884;52.538;13.820;2022-08-01T02:33:34;5.13;;;2.80;;
44842;SDS011;31884;52.538;13.820;2022-08-01T02:35:59;2.50;;;2.30;;
44842;SDS011;31884;52.538;13.820;2022-08-01T02:38:28;6.15;;;2.80;;
44842;SDS011;31884;52.538;13.820;2022-08-01T02:40:57;2.53;;;2.30;;
44842;SDS011;31884;52.538;13.820;2022-08-01T02:43:28;2.53;;;2.33;;
44842;SDS011;31884;52.538;13.820;2022-08-01T02:45:56;2.40;;;2.20;;
44842;SDS011;31884;52.538;13.820;2022-08-01T02:48:25;3.60;;;2.38;;
44842;SDS011;31884;52.538;13.820;2022-08-01T02:50:52;4.40;;;2.67;;
44842;SDS011;31884;52.538;13.820;2022-08-01T02:53:20;2.78;;;2.22;;
44842;SDS011;31884;52.538;13.820;2022-08-01T02:55:48;3.10;;;2.55;;
44842;SDS011;31884;52.538;13.820;2022-08-01T02:58:16;4.25;;;2.08;;
44842;SDS011;31884;52.538;13.820;2022-08-01T03:00:43;2.92;;;2.70;;
44842;SDS011;31884;52.538;13.820;2022-08-01T03:03:12;3.20;;;2.90;;
44842;SDS011;31884;52.538;13.820;2022-08-01T03:05:38;4.22;;;3.40;;
44842;SDS011;31884;52.538;13.820;2022-08-01T03:08:05;6.25;;;3.38;;
44842;SDS011;31884;52.538;13.820;2022-08-01T03:10:33;2.92;;;2.65;;
44842;SDS011;31884;52.538;13.820;2022-08-01T03:13:00;3.03;;;2.65;;
44842;SDS011;31884;52.538;13.820;2022-08-01T03:15:28;3.42;;;2.47;;
44842;SDS011;31884;52.538;13.820;2022-08-01T03:17:58;2.50;;;2.30;;
44842;SDS011;31884;52.538;13.820;2022-08-01T03:20:25;4.65;;;2.53;;
44842;SDS011;31884;52.538;13.820;2022-08-01T03:22:53;2.85;;;2.65;;
44842;SDS011;31884;52.538;13.820;2022-08-01T03:25:19;2.92;;;2.55;;
44842;SDS011;31884;52.538;13.820;2022-08-01T03:27:47;4.60;;;2.88;;
44842;SDS011;31884;52.538;13.820;2022-08-01T03:30:18;4.18;;;3.20;;
44842;SDS011;31884;52.538;13.820;2022-08-01T03:32:45;2.75;;;2.55;;
44842;SDS011;31884;52.538;13.820;2022-08-01T03:35:11;4.57;;;2.75;;
44842;SDS011;31884;52.538;13.820;2022-08-01T03:37:38;3.05;;;2.80;;
44842;SDS011;31884;52.538;13.820;2022-08-01T03:40:11;3.15;;;2.70;;
44842;SDS011;31884;52.538;13.820;2022-08-01T03:42:44;4.65;;;2.33;;
44842;SDS011;31884;52.538;13.820;2022-08-01T03:45:18;2.88;;;2.67;;
44842;SDS011;31884;52.538;13.820;2022-08-01T03:47:52;3.65;;;3.35;;
44842;SDS011;31884;52.538;13.820;2022-08-01T03:50:24;3.38;;;2.65;;
44842;SDS011;31884;52.538;13.820;2022-08-01T03:52:51;3.25;;;2.95;;
44842;SDS011;31884;52.538;13.820;2022-08-01T03:55:19;3.17;;;2.78;;
44842;SDS011;31884;52.538;13.820;2022-08-01T03:57:46;3.60;;;3.30;;
44842;SDS011;31884;52.538;13.820;2022-08-01T04:00:13;3.10;;;2.85;;
44842;SDS011;31884;52.538;13.820;2022-08-01T04:02:43;3.30;;;3.00;;
44842;SDS011;31884;52.538;13.820;2022-08-01T04:05:10;3.50;;;3.10;;
44842;SDS011;31884;52.538;13.820;2022-08-01T04:07:36;3.30;;;3.00;;
44842;SDS011;31884;52.538;13.820;2022-08-01T04:10:02;3.38;;;3.08;;
44842;SDS011;31884;52.538;13.820;2022-08-01T04:12:28;3.47;;;3.17;;
44842;SDS011;31884;52.538;13.820;2022-08-01T04:14:54;4.85;;;3.22;;
44842;SDS011;31884;52.538;13.820;2022-08-01T04:17:19;4.78;;;2.88;;
44842;SDS011;31884;52.538;13.820;2022-08-01T04:19:44;3.88;;;3.35;;
44842;SDS011;31884;52.538;13.820;2022-08-01T04:22:11;3.30;;;3.00;;
44842;SDS011;31884;52.538;13.820;2022-08-01T04:24:38;3.10;;;2.75;;
44842;SDS011;31884;52.538;13.820;2022-08-01T04:27:06;3.15;;;2.75;;
44842;SDS011;31884;52.538;13.820;2022-08-01T04:29:36;3.15;;;2.85;;
44842;SDS011;31884;52.538;13.820;2022-08-01T04:32:03;2.95;;;2.75;;
44842;SDS011;31884;52.538;13.820;2022-08-01T04:34:32;3.17;;;2.88;;
44842;SDS011;31884;52.538;13.820;2022-08-01T04:36:58;2.75;;;2.53;;
44842;SDS011;31884;52.538;13.820;2022-08-01T04:39:27;5.20;;;3.78;;
44842;SDS011;31884;52.538;13.820;2022-08-01T04:41:55;3.08;;;2.88;;
44842;SDS011;31884;52.538;13.820;2022-08-01T04:44:24;3.22;;;2.92;;
44842;SDS011;31884;52.538;13.820;2022-08-01T04:46:50;4.95;;;3.75;;
44842;SDS011;31884;52.538;13.820;2022-08-01T04:49:19;4.93;;;3.40;;
44842;SDS011;31884;52.538;13.820;2022-08-01T04:51:49;3.45;;;3.15;;
44842;SDS011;31884;52.538;13.820;2022-08-01T04:54:23;4.00;;;2.80;;
44842;SDS011;31884;52.538;13.820;2022-08-01T04:56:49;3.40;;;2.75;;
44842;SDS011;31884;52.538;13.820;2022-08-01T04:59:15;4.60;;;2.85;;
44842;SDS011;31884;52.538;13.820;2022-08-01T05:01:59;4.43;;;2.90;;
44842;SDS011;31884;52.538;13.820;2022-08-01T05:04:25;4.80;;;2.90;;
44842;SDS011;31884;52.538;13.820;2022-08-01T05:06:50;5.75;;;3.10;;
44842;SDS011;31884;52.538;13.820;2022-08-01T05:09:15;3.78;;;2.88;;
44842;SDS011;31884;52.538;13.820;2022-08-01T05:11:41;3.38;;;2.63;;
44842;SDS011;31884;52.538;13.820;2022-08-01T05:14:06;2.90;;;2.65;;
44842;SDS011;31884;52.538;13.820;2022-08-01T05:16:32;3.75;;;2.78;;
44842;SDS011;31884;52.538;13.820;2022-08-01T05:18:57;2.83;;;2.60;;
44842;SDS011;31884;52.538;13.820;2022-08-01T05:21:23;3.55;;;2.50;;
44842;SDS011;31884;52.538;13.820;2022-08-01T05:23:48;2.65;;;2.42;;
44842;SDS011;31884;52.538;13.820;2022-08-01T05:26:14;3.10;;;2.80;;
44842;SDS011;31884;52.538;13.820;2022-08-01T05:28:39;3.50;;;2.92;;
44842;SDS011;31884;52.538;13.820;2022-08-01T05:31:05;3.65;;;2.67;;
44842;SDS011;31884;52.538;13.820;2022-08-01T05:33:30;2.60;;;2.40;;
44842;SDS011;31884;52.538;13.820;2022-08-01T05:35:55;3.42;;;2.63;;
44842;SDS011;31884;52.538;13.820;2022-08-01T05:38:21;4.65;;;3.20;;
44842;SDS011;31884;52.538;13.820;2022-08-01T05:40:46;3.85;;;3.55;;
44842;SDS011;31884;52.538;13.820;2022-08-01T05:43:12;5.43;;;4.00;;
44842;SDS011;31884;52.538;13.820;2022-08-01T05:45:37;3.88;;;3.03;;
44842;SDS011;31884;52.538;13.820;2022-08-01T05:48:03;3.70;;;3.30;;
44842;SDS011;31884;52.538;13.820;2022-08-01T05:50:29;6.03;;;3.63;;
44842;SDS011;31884;52.538;13.820;2022-08-01T05:52:54;4.82;;;3.67;;
44842;SDS011;31884;52.538;13.820;2022-08-01T05:55:20;5.82;;;4.47;;
44842;SDS011;31884;52.538;13.820;2022-08-01T05:57:45;5.50;;;4.93;;
44842;SDS011;31884;52.538;13.820;2022-08-01T06:00:11;5.75;;;4.30;;
44842;SDS011;31884;52.538;13.820;2022-08-01T06:02:41;6.90;;;4.03;;
44842;SDS011;31884;52.538;13.820;2022-08-01T06:05:07;7.07;;;4.72;;
44842;SDS011;31884;52.538;13.820;2022-08-01T06:07:34;7.72;;;4.53;;
44842;SDS011;31884;52.538;13.820;2022-08-01T06:09:59;7.80;;;4.28;;
44842;SDS011;31884;52.538;13.820;2022-08-01T06:12:25;6.38;;;5.32;;
44842;SDS011;31884;52.538;13.820;2022-08-01T06:14:50;8.38;;;5.18;;
44842;SDS011;31884;52.538;13.820;2022-08-01T06:17:16;6.68;;;4.93;;
44842;SDS011;31884;52.538;13.820;2022-08-01T06:19:41;6.72;;;5.05;;
44842;SDS011;31884;52.538;13.820;2022-08-01T06:22:06;7.60;;;5.95;;
44842;SDS011;31884;52.538;13.820;2022-08-01T06:24:32;6.63;;;5.97;;
44842;SDS011;31884;52.538;13.820;2022-08-01T06:26:57;6.38;;;5.05;;
44842;SDS011;31884;52.538;13.820;2022-08-01T06:29:23;8.45;;;5.40;;
44842;SDS011;31884;52.538;13.820;2022-08-01T06:31:49;6.97;;;4.97;;
44842;SDS011;31884;52.538;13.820;2022-08-01T06:34:14;6.13;;;4.47;;
44842;SDS011;31884;52.538;13.820;2022-08-01T06:36:40;7.63;;;5.10;;
44842;SDS011;31884;52.538;13.820;2022-08-01T06:39:05;6.53;;;4.53;;
44842;SDS011;31884;52.538;13.820;2022-08-01T06:41:31;5.20;;;4.70;;
44842;SDS011;31884;52.538;13.820;2022-08-01T06:43:57;5.28;;;4.78;;
44842;SDS011;31884;52.538;13.820;2022-08-01T06:46:22;4.53;;;4.10;;
44842;SDS011;31884;52.538;13.820;2022-08-01T06:48:47;6.35;;;4.25;;
44842;SDS011;31884;52.538;13.820;2022-08-01T06:51:13;4.50;;;3.63;;
44842;SDS011;31884;52.538;13.820;2022-08-01T06:53:41;4.88;;;4.40;;
44842;SDS011;31884;52.538;13.820;2022-08-01T06:56:07;5.55;;;4.28;;
44842;SDS011;31884;52.538;13.820;2022-08-01T06:58:34;5.28;;;4.35;;
44842;SDS011;31884;52.538;13.820;2022-08-01T07:01:00;4.60;;;3.83;;
44842;SDS011;31884;52.538;13.820;2022-08-01T07:03:26;3.97;;;3.58;;
44842;SDS011;31884;52.538;13.820;2022-08-01T07:05:51;4.68;;;4.28;;
44842;SDS011;31884;52.538;13.820;2022-08-01T07:08:17;4.97;;;3.70;;
44842;SDS011;31884;52.538;13.820;2022-08-01T07:10:43;4.70;;;3.85;;
44842;SDS011;31884;52.538;13.820;2022-08-01T07:13:08;5.60;;;3.60;;
44842;SDS011;31884;52.538;13.820;2022-08-01T07:15:34;4.45;;;3.80;;
44842;SDS011;31884;52.538;13.820;2022-08-01T07:17:59;4.05;;;3.65;;
44842;SDS011;31884;52.538;13.820;2022-08-01T07:20:28;4.32;;;3.92;;
44842;SDS011;31884;52.538;13.820;2022-08-01T07:22:54;5.75;;;4.78;;
44842;SDS011;31884;52.538;13.820;2022-08-01T07:25:19;4.13;;;3.67;;
44842;SDS011;31884;52.538;13.820;2022-08-01T07:27:45;5.13;;;4.63;;
44842;SDS011;31884;52.538;13.820;2022-08-01T07:30:11;4.10;;;3.70;;
44842;SDS011;31884;52.538;13.820;2022-08-01T07:32:36;4.45;;;3.83;;
44842;SDS011;31884;52.538;13.820;2022-08-01T07:35:03;5.07;;;3.95;;
44842;SDS011;31884;52.538;13.820;2022-08-01T07:37:28;4.97;;;3.70;;
44842;SDS011;31884;52.538;13.820;2022-08-01T07:39:54;5.10;;;3.90;;
44842;SDS011;31884;52.538;13.820;2022-08-01T07:42:19;4.85;;;3.35;;
44842;SDS011;31884;52.538;13.820;2022-08-01T07:44:45;4.07;;;3.67;;
44842;SDS011;31884;52.538;13.820;2022-08-01T07:47:10;4.70;;;3.45;;
44842;SDS011;31884;52.538;13.820;2022-08-01T07:49:36;3.42;;;2.97;;
44842;SDS011;31884;52.538;13.820;2022-08-01T07:52:02;3.42;;;3.05;;
44842;SDS011;31884;52.538;13.820;2022-08-01T07:54:27;4.28;;;2.90;;
44842;SDS011;31884;52.538;13.820;2022-08-01T07:56:54;5.70;;;3.83;;
44842;SDS011;31884;52.538;13.820;2022-08-01T07:59:20;3.97;;;3.10;;
44842;SDS011;31884;52.538;13.820;2022-08-01T08:01:48;3.63;;;2.78;;
44842;SDS011;31884;52.538;13.820;2022-08-01T08:04:15;4.57;;;3.08;;
44842;SDS011;31884;52.538;13.820;2022-08-01T08:06:41;3.85;;;2.42;;
44842;SDS011;31884;52.538;13.820;2022-08-01T08:09:07;2.83;;;2.50;;
44842;SDS011;31884;52.538;13.820;2022-08-01T08:11:33;2.88;;;2.50;;
44842;SDS011;31884;52.538;13.820;2022-08-01T08:13:58;3.92;;;2.15;;
44842;SDS011;31884;52.538;13.820;2022-08-01T08:16:23;2.40;;;2.20;;
44842;SDS011;31884;52.538;13.820;2022-08-01T08:18:49;4.30;;;2.30;;
44842;SDS011;31884;52.538;13.820;2022-08-01T08:21:14;2.58;;;2.38;;
44842;SDS011;31884;52.538;13.820;2022-08-01T08:23:40;2.03;;;1.80;;
44842;SDS011;31884;52.538;13.820;2022-08-01T08:26:24;3.00;;;2.03;;
44842;SDS011;31884;52.538;13.820;2022-08-01T08:28:50;2.97;;;2.53;;
44842;SDS011;31884;52.538;13.820;2022-08-01T08:31:15;2.85;;;1.98;;
44842;SDS011;31884;52.538;13.820;2022-08-01T08:33:41;1.83;;;1.73;;
44842;SDS011;31884;52.538;13.820;2022-08-01T08:36:06;1.92;;;1.83;;
44842;SDS011;31884;52.538;13.820;2022-08-01T08:38:32;2.55;;;1.70;;
44842;SDS011;31884;52.538;13.820;2022-08-01T08:40:57;2.10;;;1.90;;
44842;SDS011;31884;52.538;13.820;2022-08-01T08:43:24;2.83;;;2.00;;
44842;SDS011;31884;52.538;13.820;2022-08-01T08:45:50;1.70;;;1.60;;
44842;SDS011;31884;52.538;13.820;2022-08-01T08:48:17;2.63;;;1.80;;
44842;SDS011;31884;52.538;13.820;2022-08-01T08:50:43;2.08;;;1.90;;
44842;SDS011;31884;52.538;13.820;2022-08-01T08:53:12;1.90;;;1.80;;
44842;SDS011;31884;52.538;13.820;2022-08-01T08:55:40;2.30;;;2.08;;
44842;SDS011;31884;52.538;13.820;2022-08-01T08:58:09;1.73;;;1.63;;
44842;SDS011;31884;52.538;13.820;2022-08-01T09:00:42;1.70;;;1.60;;
44842;SDS011;31884;52.538;13.820;2022-08-01T09:03:08;1.88;;;1.75;;
44842;SDS011;31884;52.538;13.820;2022-08-01T09:05:33;1.67;;;1.58;;
44842;SDS011;31884;52.538;13.820;2022-08-01T09:07:59;1.98;;;1.70;;
44842;SDS011;31884;52.538;13.820;2022-08-01T09:10:25;1.80;;;1.58;;
44842;SDS011;31884;52.538;13.820;2022-08-01T09:21:07;1.27;;;1.17;;
44842;SDS011;31884;52.538;13.820;2022-08-01T09:23:33;1.20;;;1.10;;
44842;SDS011;31884;52.538;13.820;2022-08-01T09:25:59;1.20;;;1.10;;
44842;SDS011;31884;52.538;13.820;2022-08-01T09:28:28;1.20;;;1.10;;
44842;SDS011;31884;52.538;13.820;2022-08-01T09:30:55;1.00;;;1.00;;
44842;SDS011;31884;52.538;13.820;2022-08-01T09:33:22;0.85;;;0.85;;
44842;SDS011;31884;52.538;13.820;2022-08-01T09:35:54;1.02;;;0.90;;
44842;SDS011;31884;52.538;13.820;2022-08-01T09:38:24;1.30;;;1.20;;
44842;SDS011;31884;52.538;13.820;2022-08-01T09:40:57;1.30;;;1.20;;
44842;SDS011;31884;52.538;13.820;2022-08-01T09:43:25;1.73;;;1.17;;
44842;SDS011;31884;52.538;13.820;2022-08-01T09:45:51;1.30;;;1.20;;
44842;SDS011;31884;52.538;13.820;2022-08-01T09:48:17;1.30;;;1.20;;
44842;SDS011;31884;52.538;13.820;2022-08-01T09:50:47;1.60;;;1.13;;
44842;SDS011;31884;52.538;13.820;2022-08-01T09:53:14;1.40;;;1.30;;
44842;SDS011;31884;52.538;13.820;2022-08-01T09:55:41;2.33;;;1.30;;
44842;SDS011;31884;52.538;13.820;2022-08-01T09:58:07;1.98;;;1.38;;
44842;SDS011;31884;52.538;13.820;2022-08-01T10:00:34;1.25;;;1.10;;
44842;SDS011;31884;52.538;13.820;2022-08-01T10:03:00;1.02;;;1.00;;
44842;SDS011;31884;52.538;13.820;2022-08-01T10:05:50;1.70;;;1.02;;
44842;SDS011;31884;52.538;13.820;2022-08-01T10:08:18;1.10;;;1.10;;
44842;SDS011;31884;52.538;13.820;2022-08-01T10:13:36;1.10;;;0.88;;
44842;SDS011;31884;52.538;13.820;2022-08-01T10:16:02;2.97;;;1.10;;
44842;SDS011;31884;52.538;13.820;2022-08-01T10:18:29;1.00;;;0.90;;
44842;SDS011;31884;52.538;13.820;2022-08-01T10:20:59;0.98;;;0.90;;
44842;SDS011;31884;52.538;13.820;2022-08-01T10:23:26;1.25;;;1.00;;
44842;SDS011;31884;52.538;13.820;2022-08-01T10:25:55;1.30;;;1.20;;
44842;SDS011;31884;52.538;13.820;2022-08-01T10:28:23;1.90;;;1.33;;
44842;SDS011;31884;52.538;13.820;2022-08-01T10:30:50;2.45;;;1.10;;
44842;SDS011;31884;52.538;13.820;2022-08-01T10:33:16;1.20;;;1.10;;
44842;SDS011;31884;52.538;13.820;2022-08-01T10:35:44;1.23;;;1.13;;
44842;SDS011;31884;52.538;13.820;2022-08-01T10:38:10;1.08;;;1.00;;
44842;SDS011;31884;52.538;13.820;2022-08-01T10:40:37;3.10;;;0.90;;
44842;SDS011;31884;52.538;13.820;2022-08-01T10:43:03;1.85;;;0.90;;
44842;SDS011;31884;52.538;13.820;2022-08-01T10:45:28;0.80;;;0.80;;
44842;SDS011;31884;52.538;13.820;2022-08-01T10:48:12;1.85;;;1.10;;
44842;SDS011;31884;52.538;13.820;2022-08-01T10:50:55;1.20;;;1.10;;
44842;SDS011;31884;52.538;13.820;2022-08-01T10:53:25;1.20;;;1.10;;
44842;SDS011;31884;52.538;13.820;2022-08-01T10:58:21;1.50;;;1.40;;
44842;SDS011;31884;52.538;13.820;2022-08-01T11:00:47;1.45;;;1.23;;
44842;SDS011;31884;52.538;13.820;2022-08-01T11:03:12;1.15;;;1.05;;
44842;SDS011;31884;52.538;13.820;2022-08-01T11:05:38;2.45;;;1.25;;
44842;SDS011;31884;52.538;13.820;2022-08-01T11:08:10;1.67;;;1.10;;
44842;SDS011;31884;52.538;13.820;2022-08-01T11:10:46;0.93;;;0.80;;
44842;SDS011;31884;52.538;13.820;2022-08-01T11:13:12;1.15;;;1.05;;
44842;SDS011;31884;52.538;13.820;2022-08-01T11:15:38;1.30;;;0.98;;
44842;SDS011;31884;52.538;13.820;2022-08-01T11:20:55;0.50;;;0.50;;
44842;SDS011;31884;52.538;13.820;2022-08-01T11:23:23;1.33;;;0.90;;
44842;SDS011;31884;52.538;13.820;2022-08-01T11:30:47;0.98;;;0.85;;
44842;SDS011;31884;52.538;13.820;2022-08-01T11:33:14;1.80;;;0.90;;
44842;SDS011;31884;52.538;13.820;2022-08-01T11:38:35;1.50;;;1.30;;
44842;SDS011;31884;52.538;13.820;2022-08-01T11:41:14;0.90;;;0.90;;
44842;SDS011;31884;52.538;13.820;2022-08-01T11:44:04;1.17;;;1.08;;
44842;SDS011;31884;52.538;13.820;2022-08-01T11:52:01;2.35;;;1.10;;
44842;SDS011;31884;52.538;13.820;2022-08-01T11:54:27;1.02;;;0.90;;
44842;SDS011;31884;52.538;13.820;2022-08-01T11:56:55;0.90;;;0.90;;
44842;SDS011;31884;52.538;13.820;2022-08-01T11:59:24;1.00;;;1.00;;
44842;SDS011;31884;52.538;13.820;2022-08-01T12:01:50;1.50;;;1.30;;
44842;SDS011;31884;52.538;13.820;2022-08-01T12:04:16;1.35;;;1.25;;
44842;SDS011;31884;52.538;13.820;2022-08-01T12:06:41;1.40;;;1.30;;
44842;SDS011;31884;52.538;13.820;2022-08-01T12:09:17;0.98;;;0.80;;
44842;SDS011;31884;52.538;13.820;2022-08-01T12:11:44;0.73;;;0.73;;
44842;SDS011;31884;52.538;13.820;2022-08-01T12:14:15;1.63;;;1.00;;
44842;SDS011;31884;52.538;13.820;2022-08-01T12:16:47;0.63;;;0.60;;
44842;SDS011;31884;52.538;13.820;2022-08-01T12:19:19;0.68;;;0.52;;
44842;SDS011;31884;52.538;13.820;2022-08-01T12:24:37;1.38;;;0.32;;
44842;SDS011;31884;52.538;13.820;2022-08-01T12:27:05;2.10;;;0.50;;
44842;SDS011;31884;52.538;13.820;2022-08-01T12:29:35;0.30;;;0.30;;
44842;SDS011;31884;52.538;13.820;2022-08-01T12:32:02;0.43;;;0.32;;
44842;SDS011;31884;52.538;13.820;2022-08-01T12:34:29;0.40;;;0.40;;
44842;SDS011;31884;52.538;13.820;2022-08-01T12:36:58;1.23;;;0.60;;
44842;SDS011;31884;52.538;13.820;2022-08-01T12:39:32;1.40;;;0.50;;
44842;SDS011;31884;52.538;13.820;2022-08-01T12:41:58;0.77;;;0.50;;
44842;SDS011;31884;52.538;13.820;2022-08-01T12:44:24;0.40;;;0.40;;
44842;SDS011;31884;52.538;13.820;2022-08-01T12:46:54;0.60;;;0.60;;
44842;SDS011;31884;52.538;13.820;2022-08-01T12:49:20;0.50;;;0.50;;
44842;SDS011;31884;52.538;13.820;2022-08-01T12:51:46;1.52;;;0.70;;
44842;SDS011;31884;52.538;13.820;2022-08-01T12:54:12;0.80;;;0.65;;
44842;SDS011;31884;52.538;13.820;2022-08-01T12:56:38;0.88;;;0.60;;
44842;SDS011;31884;52.538;13.820;2022-08-01T13:01:50;0.60;;;0.60;;
44842;SDS011;31884;52.538;13.820;2022-08-01T13:04:16;0.77;;;0.52;;
44842;SDS011;31884;52.538;13.820;2022-08-01T13:06:42;0.50;;;0.50;;
44842;SDS011;31884;52.538;13.820;2022-08-01T13:09:08;1.90;;;0.70;;
44842;SDS011;31884;52.538;13.820;2022-08-01T13:11:36;0.70;;;0.70;;
44842;SDS011;31884;52.538;13.820;2022-08-01T13:14:02;0.65;;;0.57;;
44842;SDS011;31884;52.538;13.820;2022-08-01T13:16:27;0.70;;;0.60;;
44842;SDS011;31884;52.538;13.820;2022-08-01T13:18:55;0.70;;;0.70;;
44842;SDS011;31884;52.538;13.820;2022-08-01T13:21:28;0.55;;;0.55;;
44842;SDS011;31884;52.538;13.820;2022-08-01T13:26:50;2.65;;;0.57;;
44842;SDS011;31884;52.538;13.820;2022-08-01T13:29:21;0.45;;;0.45;;
44842;SDS011;31884;52.538;13.820;2022-08-01T13:31:53;0.88;;;0.60;;
44842;SDS011;31884;52.538;13.820;2022-08-01T13:34:28;2.78;;;0.40;;
44842;SDS011;31884;52.538;13.820;2022-08-01T13:36:58;1.95;;;0.50;;
44842;SDS011;31884;52.538;13.820;2022-08-01T13:39:26;0.43;;;0.43;;
44842;SDS011;31884;52.538;13.820;2022-08-01T13:42:09;0.50;;;0.50;;
44842;SDS011;31884;52.538;13.820;2022-08-01T13:44:39;1.08;;;0.38;;
44842;SDS011;31884;52.538;13.820;2022-08-01T13:47:06;0.80;;;0.57;;
44842;SDS011;31884;52.538;13.820;2022-08-01T13:49:32;1.13;;;0.70;;
44842;SDS011;31884;52.538;13.820;2022-08-01T13:51:58;1.88;;;0.77;;
44842;SDS011;31884;52.538;13.820;2022-08-01T13:54:25;0.70;;;0.60;;
44842;SDS011;31884;52.538;13.820;2022-08-01T13:56:50;0.82;;;0.80;;
44842;SDS011;31884;52.538;13.820;2022-08-01T13:59:17;0.80;;;0.80;;
44842;SDS011;31884;52.538;13.820;2022-08-01T14:01:42;2.38;;;0.80;;
44842;SDS011;31884;52.538;13.820;2022-08-01T14:04:08;2.72;;;0.90;;
44842;SDS011;31884;52.538;13.820;2022-08-01T14:06:33;1.52;;;0.73;;
44842;SDS011;31884;52.538;13.820;2022-08-01T14:09:02;1.15;;;0.95;;
44842;SDS011;31884;52.538;13.820;2022-08-01T14:11:28;2.22;;;0.80;;
44842;SDS011;31884;52.538;13.820;2022-08-01T14:13:54;1.52;;;0.73;;
44842;SDS011;31884;52.538;13.820;2022-08-01T14:16:19;2.25;;;1.00;;
44842;SDS011;31884;52.538;13.820;2022-08-01T14:18:44;1.23;;;0.80;;
44842;SDS011;31884;52.538;13.820;2022-08-01T14:21:10;2.15;;;0.70;;
44842;SDS011;31884;52.538;13.820;2022-08-01T14:23:36;0.93;;;0.93;;
44842;SDS011;31884;52.538;13.820;2022-08-01T14:26:02;0.80;;;0.80;;
44842;SDS011;31884;52.538;13.820;2022-08-01T14:28:27;0.73;;;0.40;;
44842;SDS011;31884;52.538;13.820;2022-08-01T14:30:55;1.98;;;0.70;;
44842;SDS011;31884;52.538;13.820;2022-08-01T14:33:24;2.55;;;0.75;;
44842;SDS011;31884;52.538;13.820;2022-08-01T14:35:49;0.95;;;0.90;;
44842;SDS011;31884;52.538;13.820;2022-08-01T14:38:15;0.82;;;0.70;;
44842;SDS011;31884;52.538;13.820;2022-08-01T14:40:40;0.70;;;0.70;;
44842;SDS011;31884;52.538;13.820;2022-08-01T14:43:06;1.55;;;0.85;;
44842;SDS011;31884;52.538;13.820;2022-08-01T14:45:31;0.75;;;0.63;;
44842;SDS011;31884;52.538;13.820;2022-08-01T14:47:58;1.77;;;0.70;;
44842;SDS011;31884;52.538;13.820;2022-08-01T14:50:23;1.58;;;0.75;;
44842;SDS011;31884;52.538;13.820;2022-08-01T14:52:51;0.80;;;0.80;;
44842;SDS011;31884;52.538;13.820;2022-08-01T14:55:17;2.40;;;0.85;;
44842;SDS011;31884;52.538;13.820;2022-08-01T14:57:43;0.93;;;0.82;;
44842;SDS011;31884;52.538;13.820;2022-08-01T15:00:09;3.10;;;0.90;;
44842;SDS011;31884;52.538;13.820;2022-08-01T15:02:38;2.08;;;0.75;;
44842;SDS011;31884;52.538;13.820;2022-08-01T15:05:04;3.28;;;0.80;;
44842;SDS011;31884;52.538;13.820;2022-08-01T15:07:31;1.00;;;0.90;;
44842;SDS011;31884;52.538;13.820;2022-08-01T15:09:57;1.08;;;0.90;;
44842;SDS011;31884;52.538;13.820;2022-08-01T15:12:22;0.73;;;0.70;;
44842;SDS011;31884;52.538;13.820;2022-08-01T15:14:48;1.00;;;0.90;;
44842;SDS011;31884;52.538;13.820;2022-08-01T15:17:14;1.25;;;1.02;;